createdAt,value
2022-08-14T00:00:08.995Z,2.08
2022-08-14T00:02:13.729Z,1.65
2022-08-14T00:04:35.970Z,2.00
2022-08-14T00:06:37.296Z,1.90
2022-08-14T00:08:44.444Z,2.25
2022-08-14T00:10:52.466Z,1.98
2022-08-14T00:12:57.046Z,2.08
2022-08-14T00:14:58.543Z,2.10
2022-08-14T00:17:00.956Z,2.20
2022-08-14T00:19:06.506Z,1.95
2022-08-14T00:21:20.229Z,2.30
2022-08-14T00:23:29.609Z,2.17
2022-08-14T00:25:42.146Z,2.53
2022-08-14T00:27:44.083Z,1.90
2022-08-14T00:29:50.496Z,2.00
2022-08-14T00:31:54.520Z,1.80
2022-08-14T00:33:58.743Z,2.03
2022-08-14T00:36:35.716Z,1.95
2022-08-14T00:38:40.459Z,2.08
2022-08-14T00:40:46.274Z,1.98
2022-08-14T00:42:52.435Z,1.80
2022-08-14T00:44:57.467Z,2.20
2022-08-14T00:46:59.726Z,2.00
2022-08-14T00:49:02.348Z,2.00
2022-08-14T00:51:08.699Z,2.20
2022-08-14T00:53:10.598Z,2.10
2022-08-14T00:55:13.894Z,2.20
2022-08-14T00:57:15.275Z,1.85
2022-08-14T00:59:18.462Z,2.10
2022-08-14T01:01:20.280Z,2.20
2022-08-14T01:03:22.299Z,2.00
2022-08-14T01:05:23.609Z,2.20
2022-08-14T01:07:27.133Z,2.00
2022-08-14T01:09:29.607Z,2.40
2022-08-14T01:11:35.331Z,2.40
2022-08-14T01:13:42.734Z,2.40
2022-08-14T01:15:57.903Z,2.33
2022-08-14T01:18:21.315Z,3.00
2022-08-14T01:20:41.434Z,2.33
2022-08-14T01:22:45.918Z,2.40
2022-08-14T01:24:47.467Z,2.55
2022-08-14T01:26:50.656Z,2.40
2022-08-14T01:28:57.775Z,2.17
2022-08-14T01:30:59.321Z,2.30
2022-08-14T01:33:02.858Z,2.20
2022-08-14T01:35:17.751Z,2.25
2022-08-14T01:37:28.763Z,2.42
2022-08-14T01:39:32.920Z,2.35
2022-08-14T01:41:39.371Z,2.20
2022-08-14T01:43:56.699Z,2.40
2022-08-14T01:46:06.558Z,2.30
2022-08-14T01:48:13.560Z,2.45
2022-08-14T01:50:18.156Z,2.60
2022-08-14T01:52:57.733Z,2.38
2022-08-14T01:54:58.139Z,2.50
2022-08-14T01:57:00.009Z,2.90
2022-08-14T01:59:02.443Z,2.67
2022-08-14T02:01:05.092Z,2.90
2022-08-14T02:03:10.171Z,2.72
2022-08-14T02:05:12.537Z,2.75
2022-08-14T02:07:15.688Z,2.80
2022-08-14T02:09:19.366Z,2.60
2022-08-14T02:11:25.603Z,2.80
2022-08-14T02:13:26.892Z,2.70
2022-08-14T02:15:32.067Z,2.80
2022-08-14T02:17:33.976Z,2.70
2022-08-14T02:19:36.008Z,2.70
2022-08-14T02:21:43.298Z,2.63
2022-08-14T02:23:49.047Z,2.60
2022-08-14T02:25:55.153Z,2.50
2022-08-14T02:28:23.172Z,2.63
2022-08-14T02:30:18.066Z,2.53
2022-08-14T02:32:30.412Z,2.60
2022-08-14T02:34:38.376Z,2.90
2022-08-14T02:37:04.369Z,2.88
2022-08-14T02:39:07.620Z,2.88
2022-08-14T02:41:11.059Z,2.60
2022-08-14T02:43:13.714Z,2.60
2022-08-14T02:45:15.411Z,2.58
2022-08-14T02:47:20.790Z,2.67
2022-08-14T02:49:26.517Z,2.80
2022-08-14T02:51:36.651Z,2.53
2022-08-14T02:53:43.737Z,2.65
2022-08-14T02:55:45.054Z,2.40
2022-08-14T02:57:57.906Z,2.65
2022-08-14T03:00:06.473Z,2.63
2022-08-14T03:02:48.930Z,3.00
2022-08-14T03:04:33.170Z,3.20
2022-08-14T03:07:06.755Z,2.63
2022-08-14T03:08:59.081Z,3.10
2022-08-14T03:11:07.649Z,2.60
2022-08-14T03:13:13.815Z,2.70
2022-08-14T03:15:21.577Z,3.00
2022-08-14T03:17:24.035Z,2.65
2022-08-14T03:19:26.541Z,2.55
2022-08-14T03:21:31.320Z,2.83
2022-08-14T03:23:38.786Z,2.70
2022-08-14T03:25:40.794Z,2.72
2022-08-14T03:27:48.206Z,3.00
2022-08-14T03:30:00.147Z,2.85
2022-08-14T03:32:06.998Z,2.60
2022-08-14T03:34:10.306Z,2.50
2022-08-14T03:37:38.638Z,2.90
2022-08-14T03:39:12.935Z,2.88
2022-08-14T03:41:16.667Z,2.70
2022-08-14T03:43:18.109Z,2.60
2022-08-14T03:45:33.670Z,2.90
2022-08-14T03:47:46.611Z,2.78
2022-08-14T03:49:59.882Z,2.70
2022-08-14T03:52:17.826Z,2.72
2022-08-14T03:54:26.138Z,3.00
2022-08-14T03:56:29.967Z,2.60
2022-08-14T03:58:35.130Z,3.00
2022-08-14T04:00:43.767Z,2.50
2022-08-14T04:02:53.458Z,2.80
2022-08-14T04:04:55.109Z,2.95
2022-08-14T04:07:10.693Z,2.60
2022-08-14T04:09:12.286Z,2.67
2022-08-14T04:11:13.613Z,3.03
2022-08-14T04:13:18.170Z,2.70
2022-08-14T04:15:19.955Z,2.78
2022-08-14T04:17:25.561Z,3.05
2022-08-14T04:19:28.143Z,2.80
2022-08-14T04:21:39.819Z,2.55
2022-08-14T04:23:58.114Z,2.70
2022-08-14T04:26:03.741Z,2.88
2022-08-14T04:28:05.783Z,2.80
2022-08-14T04:30:07.432Z,3.00
2022-08-14T04:33:01.459Z,2.72
2022-08-14T04:34:30.947Z,3.03
2022-08-14T04:36:32.616Z,2.80
2022-08-14T04:38:56.386Z,3.00
2022-08-14T04:41:17.143Z,2.97
2022-08-14T04:43:39.246Z,3.13
2022-08-14T04:45:41.031Z,3.85
2022-08-14T04:48:02.634Z,3.20
2022-08-14T04:50:04.462Z,3.15
2022-08-14T04:52:15.527Z,2.97
2022-08-14T04:54:26.903Z,3.30
2022-08-14T04:56:31.392Z,2.85
2022-08-14T04:58:35.604Z,3.10
2022-08-14T05:00:39.962Z,3.20
2022-08-14T05:02:43.226Z,2.83
2022-08-14T05:04:45.064Z,3.10
2022-08-14T05:06:47.210Z,3.22
2022-08-14T05:08:59.821Z,3.20
2022-08-14T05:11:02.800Z,3.60
2022-08-14T05:13:13.145Z,3.00
2022-08-14T05:15:15.983Z,3.38
2022-08-14T05:17:21.566Z,3.28
2022-08-14T05:19:27.089Z,3.08
2022-08-14T05:21:57.419Z,3.20
2022-08-14T05:23:51.811Z,3.30
2022-08-14T05:25:58.986Z,3.40
2022-08-14T05:28:16.428Z,3.05
2022-08-14T05:30:19.938Z,2.72
2022-08-14T05:32:22.211Z,3.00
2022-08-14T05:34:32.099Z,2.75
2022-08-14T05:36:33.730Z,3.25
2022-08-14T05:38:38.979Z,2.97
2022-08-14T05:40:40.887Z,2.88
2022-08-14T05:42:42.196Z,2.88
2022-08-14T05:44:47.969Z,2.72
2022-08-14T05:46:50.659Z,2.85
2022-08-14T05:48:53.446Z,2.97
2022-08-14T05:50:55.514Z,2.72
2022-08-14T05:52:58.311Z,2.78
2022-08-14T05:55:00.548Z,2.97
2022-08-14T05:57:02.306Z,2.47
2022-08-14T05:59:03.624Z,2.70
2022-08-14T06:01:05.059Z,2.67
2022-08-14T06:03:10.439Z,2.80
2022-08-14T06:05:11.849Z,2.55
2022-08-14T06:07:14.386Z,2.80
2022-08-14T06:09:16.285Z,2.70
2022-08-14T06:11:20.314Z,2.80
2022-08-14T06:13:31.469Z,2.72
2022-08-14T06:15:33.339Z,3.20
2022-08-14T06:17:47.129Z,2.90
2022-08-14T06:19:57.138Z,3.20
2022-08-14T06:21:59.471Z,2.95
2022-08-14T06:24:01.307Z,2.60
2022-08-14T06:26:02.722Z,3.00
2022-08-14T06:28:05.193Z,3.00
2022-08-14T06:30:30.113Z,2.70
2022-08-14T06:32:46.562Z,2.47
2022-08-14T06:35:10.610Z,2.90
2022-08-14T06:37:11.499Z,2.97
2022-08-14T06:39:12.798Z,2.90
2022-08-14T06:41:20.707Z,2.58
2022-08-14T06:43:27.112Z,2.88
2022-08-14T06:45:31.887Z,2.63
2022-08-14T06:47:34.154Z,2.50
2022-08-14T06:49:40.260Z,2.65
2022-08-14T06:51:46.739Z,3.00
2022-08-14T06:53:51.436Z,2.50
2022-08-14T06:55:58.078Z,2.58
2022-08-14T06:57:59.835Z,3.08
2022-08-14T07:00:06.790Z,2.67
2022-08-14T07:02:28.799Z,2.90
2022-08-14T07:04:49.321Z,2.60
2022-08-14T07:06:55.437Z,2.70
2022-08-14T07:08:59.803Z,2.90
2022-08-14T07:11:03.811Z,3.03
2022-08-14T07:13:05.835Z,2.72
2022-08-14T07:15:07.794Z,2.90
2022-08-14T07:17:09.123Z,2.85
2022-08-14T07:19:10.814Z,2.92
2022-08-14T07:21:12.263Z,3.17
2022-08-14T07:23:20.623Z,2.72
2022-08-14T07:25:22.585Z,2.90
2022-08-14T07:27:36.176Z,2.72
2022-08-14T07:29:42.367Z,2.60
2022-08-14T07:31:43.884Z,2.67
2022-08-14T07:33:50.308Z,2.83
2022-08-14T07:35:58.818Z,2.80
2022-08-14T07:38:00.630Z,2.90
2022-08-14T07:40:03.602Z,2.70
2022-08-14T07:42:05.274Z,2.50
2022-08-14T07:44:28.986Z,2.78
2022-08-14T07:46:32.518Z,2.58
2022-08-14T07:48:38.174Z,2.60
2022-08-14T07:50:40.328Z,2.70
2022-08-14T07:52:47.759Z,2.45
2022-08-14T07:54:49.214Z,2.83
2022-08-14T07:56:53.947Z,2.60
2022-08-14T07:58:58.748Z,2.45
2022-08-14T08:01:02.429Z,2.50
2022-08-14T08:03:08.693Z,2.72
2022-08-14T08:05:11.276Z,2.50
2022-08-14T08:07:13.415Z,2.70
2022-08-14T08:09:17.176Z,2.47
2022-08-14T08:11:20.280Z,2.50
2022-08-14T08:13:24.309Z,2.55
2022-08-14T08:15:26.927Z,2.58
2022-08-14T08:17:34.705Z,2.55
2022-08-14T08:19:39.816Z,2.58
2022-08-14T08:21:43.837Z,3.00
2022-08-14T08:23:51.175Z,2.65
2022-08-14T08:25:52.940Z,2.70
2022-08-14T08:27:55.684Z,2.65
2022-08-14T08:30:10.245Z,3.00
2022-08-14T08:32:12.921Z,2.90
2022-08-14T08:34:18.234Z,2.50
2022-08-14T08:36:20.453Z,2.83
2022-08-14T08:39:16.446Z,2.80
2022-08-14T08:40:47.105Z,2.40
2022-08-14T08:42:53.085Z,2.53
2022-08-14T08:44:55.268Z,2.75
2022-08-14T08:46:57.083Z,2.53
2022-08-14T08:51:00.205Z,2.70
2022-08-14T08:53:04.825Z,2.30
2022-08-14T08:55:06.626Z,2.78
2022-08-14T08:57:12.718Z,2.75
2022-08-14T08:59:27.057Z,2.67
2022-08-14T09:01:32.342Z,2.55
2022-08-14T09:03:37.865Z,2.70
2022-08-14T09:05:50.047Z,2.72
2022-08-14T09:08:15.001Z,2.63
2022-08-14T09:10:29.724Z,2.65
2022-08-14T09:12:33.984Z,2.70
2022-08-14T09:14:36.120Z,2.45
2022-08-14T09:16:45.124Z,2.70
2022-08-14T09:18:49.291Z,2.53
2022-08-14T09:20:51.826Z,2.60
2022-08-14T09:22:56.263Z,2.70
2022-08-14T09:24:57.631Z,2.83
2022-08-14T09:26:59.306Z,2.35
2022-08-14T09:29:02.179Z,2.95
2022-08-14T09:31:17.327Z,2.38
2022-08-14T09:33:22.879Z,2.70
2022-08-14T09:35:30.036Z,2.60
2022-08-14T09:37:44.463Z,2.75
2022-08-14T09:39:58.799Z,3.05
2022-08-14T09:42:20.943Z,2.83
2022-08-14T09:44:46.056Z,2.90
2022-08-14T09:46:58.045Z,4.00
2022-08-14T09:49:00.119Z,3.05
2022-08-14T09:53:04.897Z,2.90
2022-08-14T09:55:18.395Z,3.35
2022-08-14T09:57:30.878Z,3.40
2022-08-14T09:59:46.445Z,3.70
2022-08-14T10:01:53.038Z,4.22
2022-08-14T10:03:56.353Z,4.10
2022-08-14T10:06:20.325Z,3.97
2022-08-14T10:08:26.106Z,4.50
2022-08-14T10:10:28.258Z,3.95
2022-08-14T10:12:46.239Z,4.00
2022-08-14T10:14:53.477Z,4.50
2022-08-14T10:16:56.066Z,4.40
2022-08-14T10:19:03.718Z,4.60
2022-08-14T10:21:09.499Z,4.60
2022-08-14T10:23:16.298Z,4.72
2022-08-14T10:25:19.688Z,4.60
2022-08-14T10:27:25.166Z,4.10
2022-08-14T10:29:39.824Z,4.72
2022-08-14T10:31:45.332Z,4.47
2022-08-14T10:34:13.464Z,4.22
2022-08-14T10:36:35.212Z,4.43
2022-08-14T10:38:42.191Z,4.47
2022-08-14T10:40:59.482Z,4.80
2022-08-14T10:43:04.287Z,4.90
2022-08-14T10:45:46.374Z,5.15
2022-08-14T10:48:08.024Z,4.80
2022-08-14T10:50:14.684Z,4.80
2022-08-14T10:52:33.803Z,5.07
2022-08-14T10:54:39.896Z,4.80
2022-08-14T10:56:41.759Z,4.95
2022-08-14T10:58:43.079Z,5.57
2022-08-14T11:00:56.874Z,5.68
2022-08-14T11:03:03.175Z,4.35
2022-08-14T11:05:11.298Z,5.00
2022-08-14T11:07:21.057Z,5.10
2022-08-14T11:09:22.803Z,4.93
2022-08-14T11:11:28.499Z,5.30
2022-08-14T11:13:38.694Z,5.32
2022-08-14T11:15:41.084Z,5.47
2022-08-14T11:17:45.993Z,4.97
2022-08-14T11:19:53.854Z,4.70
2022-08-14T11:21:55.720Z,5.03
2022-08-14T11:23:58.625Z,5.20
2022-08-14T11:26:03.234Z,5.07
2022-08-14T11:28:10.962Z,4.50
2022-08-14T11:30:51.338Z,5.10
2022-08-14T11:32:45.527Z,4.63
2022-08-14T11:34:49.527Z,5.00
2022-08-14T11:37:02.085Z,4.97
2022-08-14T11:39:19.102Z,5.50
2022-08-14T11:41:38.146Z,5.03
2022-08-14T11:43:44.018Z,4.85
2022-08-14T11:45:57.639Z,5.30
2022-08-14T11:48:12.584Z,5.38
2022-08-14T11:50:24.997Z,5.45
2022-08-14T11:52:40.239Z,5.80
2022-08-14T11:54:42.678Z,5.70
2022-08-14T11:56:51.190Z,5.88
2022-08-14T11:58:53.271Z,5.65
2022-08-14T12:00:59.857Z,5.72
2022-08-14T12:03:04.244Z,5.90
2022-08-14T12:05:09.143Z,6.10
2022-08-14T12:07:12.046Z,6.47
2022-08-14T12:09:14.989Z,5.65
2022-08-14T12:11:17.200Z,5.70
2022-08-14T12:13:19.373Z,5.55
2022-08-14T12:15:30.999Z,5.10
2022-08-14T12:17:47.663Z,5.43
2022-08-14T12:19:58.784Z,4.13
2022-08-14T12:22:00.122Z,3.90
2022-08-14T12:24:04.971Z,3.22
2022-08-14T12:26:39.510Z,3.30
2022-08-14T12:29:00.310Z,3.17
2022-08-14T12:31:12.024Z,2.60
2022-08-14T12:33:27.160Z,2.80
2022-08-14T12:35:36.589Z,2.90
2022-08-14T12:37:47.715Z,2.65
2022-08-14T12:39:49.159Z,2.47
2022-08-14T12:41:57.109Z,2.75
2022-08-14T12:44:03.835Z,2.30
2022-08-14T12:46:05.270Z,2.60
2022-08-14T12:48:20.641Z,2.90
2022-08-14T12:50:34.319Z,3.03
2022-08-14T12:52:54.265Z,3.00
2022-08-14T12:55:06.272Z,3.63
2022-08-14T12:57:14.668Z,3.25
2022-08-14T12:59:29.102Z,3.30
2022-08-14T13:01:59.278Z,2.80
2022-08-14T13:04:05.334Z,3.47
2022-08-14T13:06:06.909Z,3.38
2022-08-14T13:08:33.713Z,3.35
2022-08-14T13:10:47.420Z,3.30
2022-08-14T13:13:13.228Z,3.08
2022-08-14T13:15:17.779Z,3.50
2022-08-14T13:17:21.871Z,3.35
2022-08-14T13:19:26.687Z,3.38
2022-08-14T13:21:31.654Z,3.13
2022-08-14T13:23:54.322Z,3.15
2022-08-14T13:25:56.466Z,3.08
2022-08-14T13:27:58.972Z,2.90
2022-08-14T13:30:01.839Z,3.03
2022-08-14T13:32:05.790Z,3.22
2022-08-14T13:34:08.160Z,3.35
2022-08-14T13:36:11.161Z,3.13
2022-08-14T13:38:26.563Z,3.33
2022-08-14T13:40:30.263Z,3.08
2022-08-14T13:42:33.015Z,3.78
2022-08-14T13:44:36.033Z,3.20
2022-08-14T13:46:38.127Z,3.17
2022-08-14T13:48:39.824Z,3.42
2022-08-14T13:50:45.485Z,3.28
2022-08-14T13:52:56.484Z,3.22
2022-08-14T13:54:58.864Z,3.38
2022-08-14T13:57:01.033Z,3.30
2022-08-14T13:59:02.760Z,3.30
2022-08-14T14:01:06.630Z,3.30
2022-08-14T14:03:11.087Z,3.28
2022-08-14T14:05:18.664Z,3.45
2022-08-14T14:07:23.488Z,3.63
2022-08-14T14:09:32.572Z,3.63
2022-08-14T14:13:48.168Z,3.78
2022-08-14T14:15:58.834Z,3.50
2022-08-14T14:18:00.823Z,3.38
2022-08-14T14:20:02.972Z,3.40
2022-08-14T14:22:06.374Z,3.17
2022-08-14T14:24:14.662Z,3.47
2022-08-14T14:26:23.077Z,3.28
2022-08-14T14:28:31.238Z,3.35
2022-08-14T14:30:52.828Z,3.47
2022-08-14T14:33:02.102Z,3.63
2022-08-14T14:35:09.178Z,3.92
2022-08-14T14:37:11.415Z,3.67
2022-08-14T14:39:16.930Z,3.10
2022-08-14T14:41:22.931Z,3.50
2022-08-14T14:43:26.196Z,3.22
2022-08-14T14:45:28.157Z,3.60
2022-08-14T14:47:29.664Z,4.60
2022-08-14T14:49:51.373Z,3.05
2022-08-14T14:51:53.657Z,3.38
2022-08-14T14:53:57.531Z,3.60
2022-08-14T14:56:47.912Z,3.10
2022-08-14T14:58:23.212Z,3.15
2022-08-14T15:00:24.537Z,3.00
2022-08-14T15:02:34.169Z,3.35
2022-08-14T15:04:38.880Z,3.28
2022-08-14T15:06:47.678Z,3.35
2022-08-14T15:08:56.730Z,3.60
2022-08-14T15:11:04.076Z,3.50
2022-08-14T15:13:14.866Z,3.63
2022-08-14T15:15:16.333Z,3.10
2022-08-14T15:17:17.834Z,3.83
2022-08-14T15:19:21.978Z,3.20
2022-08-14T15:21:24.839Z,3.10
2022-08-14T15:23:43.469Z,3.38
2022-08-14T15:25:53.103Z,3.35
2022-08-14T15:27:55.009Z,3.15
2022-08-14T15:29:56.359Z,3.40
2022-08-14T15:31:57.684Z,3.33
2022-08-14T15:34:44.040Z,3.25
2022-08-14T15:36:35.090Z,3.40
2022-08-14T15:38:38.134Z,3.38
2022-08-14T15:40:44.103Z,3.28
2022-08-14T15:42:52.671Z,3.55
2022-08-14T15:44:58.168Z,3.22
2022-08-14T15:47:06.952Z,3.65
2022-08-14T15:49:08.791Z,3.10
2022-08-14T15:51:11.247Z,3.58
2022-08-14T15:53:14.428Z,3.88
2022-08-14T15:55:16.380Z,4.35
2022-08-14T15:57:18.099Z,3.85
2022-08-14T15:59:19.414Z,3.55
2022-08-14T16:01:43.583Z,4.03
2022-08-14T16:03:46.925Z,3.88
2022-08-14T16:05:48.291Z,3.95
2022-08-14T16:07:49.896Z,3.85
2022-08-14T16:10:11.907Z,4.00
2022-08-14T16:12:13.570Z,4.00
2022-08-14T16:14:21.581Z,3.38
2022-08-14T16:16:34.829Z,4.10
2022-08-14T16:18:47.275Z,3.38
2022-08-14T16:20:56.661Z,3.67
2022-08-14T16:23:00.617Z,3.63
2022-08-14T16:25:03.767Z,3.80
2022-08-14T16:27:07.611Z,3.17
2022-08-14T16:29:15.284Z,3.63
2022-08-14T16:31:18.368Z,3.90
2022-08-14T16:33:27.958Z,3.60
2022-08-14T16:35:59.401Z,3.30
2022-08-14T16:38:35.700Z,3.75
2022-08-14T16:42:40.112Z,3.55
2022-08-14T16:44:54.640Z,3.35
2022-08-14T16:46:57.526Z,3.30
2022-08-14T16:49:00.751Z,3.67
2022-08-14T16:51:06.757Z,3.47
2022-08-14T16:53:09.532Z,3.63
2022-08-14T16:55:12.408Z,4.10
2022-08-14T16:57:16.243Z,3.53
2022-08-14T16:59:30.630Z,3.63
2022-08-14T17:01:57.484Z,3.83
2022-08-14T17:03:59.318Z,3.75
2022-08-14T17:06:00.637Z,3.47
2022-08-14T17:08:24.027Z,3.83
2022-08-14T17:10:28.026Z,3.70
2022-08-14T17:12:34.963Z,3.60
2022-08-14T17:14:57.495Z,3.70
2022-08-14T17:16:59.277Z,3.10
2022-08-14T17:19:03.709Z,2.80
2022-08-14T17:21:38.073Z,2.72
2022-08-14T17:23:39.923Z,2.90
2022-08-14T17:25:50.841Z,2.92
2022-08-14T17:28:50.226Z,3.10
2022-08-14T17:32:55.713Z,2.70
2022-08-14T17:35:01.838Z,2.70
2022-08-14T17:37:03.623Z,3.10
2022-08-14T17:39:14.045Z,2.97
2022-08-14T17:41:22.488Z,2.85
2022-08-14T17:43:29.548Z,2.60
2022-08-14T17:45:45.362Z,3.03
2022-08-14T17:47:48.747Z,2.53
2022-08-14T17:49:53.515Z,2.17
2022-08-14T17:51:58.887Z,2.60
2022-08-14T17:54:02.608Z,3.28
2022-08-14T17:56:04.886Z,3.05
2022-08-14T17:58:20.656Z,2.60
2022-08-14T18:00:23.561Z,2.80
2022-08-14T18:02:31.294Z,2.38
2022-08-14T18:04:33.985Z,2.75
2022-08-14T18:06:39.104Z,3.17
2022-08-14T18:08:58.878Z,2.60
2022-08-14T18:11:02.394Z,2.80
2022-08-14T18:13:07.844Z,2.65
2022-08-14T18:15:17.356Z,2.53
2022-08-14T18:17:23.443Z,2.60
2022-08-14T18:19:25.938Z,2.40
2022-08-14T18:21:56.191Z,2.78
2022-08-14T18:23:51.592Z,2.63
2022-08-14T18:25:54.539Z,2.63
2022-08-14T18:27:57.209Z,2.55
2022-08-14T18:29:59.775Z,2.38
2022-08-14T18:32:01.125Z,2.58
2022-08-14T18:34:11.660Z,2.60
2022-08-14T18:36:48.501Z,3.85
2022-08-14T18:39:12.667Z,3.20
2022-08-14T18:41:25.806Z,3.03
2022-08-14T18:43:43.067Z,2.97
2022-08-14T18:45:58.438Z,3.20
2022-08-14T18:48:18.794Z,3.42
2022-08-14T18:50:27.300Z,3.22
2022-08-14T18:52:41.693Z,3.25
2022-08-14T18:54:47.567Z,2.80
2022-08-14T18:56:56.950Z,2.78
2022-08-14T18:59:00.230Z,2.65
2022-08-14T19:01:02.122Z,2.60
2022-08-14T19:03:05.674Z,2.63
2022-08-14T19:05:08.647Z,2.55
2022-08-14T19:07:17.103Z,2.85
2022-08-14T19:09:37.214Z,2.60
2022-08-14T19:11:42.049Z,2.67
2022-08-14T19:13:44.553Z,3.00
2022-08-14T19:16:04.264Z,2.58
2022-08-14T19:18:19.640Z,3.28
2022-08-14T19:20:44.846Z,3.03
2022-08-14T19:22:47.212Z,3.08
2022-08-14T19:24:50.162Z,2.90
2022-08-14T19:27:11.650Z,2.67
2022-08-14T19:29:19.990Z,3.00
2022-08-14T19:31:42.437Z,2.92
2022-08-14T19:33:46.922Z,3.10
2022-08-14T19:35:56.061Z,2.97
2022-08-14T19:38:01.733Z,2.75
2022-08-14T19:40:15.441Z,2.80
2022-08-14T19:42:28.315Z,3.10
2022-08-14T19:44:32.272Z,2.88
2022-08-14T19:46:39.018Z,2.97
2022-08-14T19:48:56.935Z,3.72
2022-08-14T19:51:02.367Z,3.42
2022-08-14T19:53:11.341Z,3.80
2022-08-14T19:55:17.949Z,3.55
2022-08-14T19:57:25.845Z,3.27
2022-08-14T19:59:36.598Z,3.33
2022-08-14T20:01:53.591Z,3.70
2022-08-14T20:03:59.924Z,3.50
2022-08-14T20:06:05.624Z,2.92
2022-08-14T20:08:07.492Z,3.53
2022-08-14T20:11:04.788Z,3.40
2022-08-14T20:13:15.628Z,3.10
2022-08-14T20:15:26.550Z,4.00
2022-08-14T20:17:52.766Z,3.63
2022-08-14T20:19:54.690Z,3.53
2022-08-14T20:22:35.879Z,2.90
2022-08-14T20:24:30.860Z,2.30
2022-08-14T20:26:36.718Z,2.88
2022-08-14T20:28:39.772Z,2.85
2022-08-14T20:31:13.243Z,2.33
2022-08-14T20:33:16.375Z,3.05
2022-08-14T20:35:35.274Z,2.70
2022-08-14T20:37:37.386Z,2.83
2022-08-14T20:39:40.211Z,3.05
2022-08-14T20:41:51.140Z,2.88
2022-08-14T20:44:15.542Z,3.45
2022-08-14T20:46:29.461Z,3.00
2022-08-14T20:48:52.634Z,2.70
2022-08-14T20:50:53.399Z,2.58
2022-08-14T20:52:59.524Z,2.60
2022-08-14T20:55:19.958Z,2.67
2022-08-14T20:57:23.764Z,2.42
2022-08-14T20:59:26.204Z,2.42
2022-08-14T21:01:32.601Z,2.55
2022-08-14T21:03:57.408Z,2.40
2022-08-14T21:06:01.591Z,2.80
2022-08-14T21:08:22.405Z,2.72
2022-08-14T21:10:36.506Z,3.03
2022-08-14T21:13:14.375Z,2.70
2022-08-14T21:15:11.127Z,2.70
2022-08-14T21:17:16.621Z,2.83
2022-08-14T21:19:19.098Z,2.78
2022-08-14T21:21:22.013Z,3.10
2022-08-14T21:23:24.040Z,2.83
2022-08-14T21:25:25.728Z,2.75
2022-08-14T21:27:37.085Z,2.78
2022-08-14T21:29:40.932Z,2.80
2022-08-14T21:31:56.574Z,2.38
2022-08-14T21:33:59.992Z,2.42
2022-08-14T21:36:08.000Z,2.13
2022-08-14T21:38:18.315Z,2.67
2022-08-14T21:40:41.125Z,2.70
2022-08-14T21:42:43.330Z,3.08
2022-08-14T21:44:51.333Z,3.28
2022-08-14T21:46:55.555Z,3.00
2022-08-14T21:48:58.083Z,3.47
2022-08-14T21:51:53.808Z,3.08
2022-08-14T21:53:24.983Z,2.40
2022-08-14T21:55:26.291Z,3.25
2022-08-14T21:57:56.355Z,2.50
2022-08-14T21:59:58.948Z,2.10
2022-08-14T22:02:04.295Z,2.17
2022-08-14T22:04:33.027Z,2.00
2022-08-14T22:06:28.480Z,2.33
2022-08-14T22:08:30.843Z,2.13
2022-08-14T22:10:35.672Z,2.35
2022-08-14T22:12:57.367Z,1.95
2022-08-14T22:14:58.684Z,1.88
2022-08-14T22:17:12.277Z,2.20
2022-08-14T22:19:17.327Z,2.17
2022-08-14T22:21:21.343Z,1.95
2022-08-14T22:23:23.839Z,1.85
2022-08-14T22:25:33.180Z,1.65
2022-08-14T22:27:37.702Z,2.20
2022-08-14T22:29:58.458Z,1.80
2022-08-14T22:31:59.976Z,1.77
2022-08-14T22:34:02.460Z,1.88
2022-08-14T22:36:25.215Z,2.00
2022-08-14T22:38:37.167Z,1.75
2022-08-14T22:41:01.086Z,1.65
2022-08-14T22:43:06.899Z,1.60
2022-08-14T22:45:09.936Z,1.88
2022-08-14T22:47:11.659Z,1.65
2022-08-14T22:49:16.811Z,2.10
2022-08-14T22:51:40.770Z,1.70
2022-08-14T22:53:52.301Z,1.50
2022-08-14T22:55:54.455Z,1.52
2022-08-14T22:57:56.497Z,2.08
2022-08-14T22:59:59.475Z,2.05
2022-08-14T23:02:07.306Z,1.48
2022-08-14T23:04:35.033Z,1.77
2022-08-14T23:07:03.555Z,1.42
2022-08-14T23:09:02.137Z,1.60
2022-08-14T23:11:17.652Z,1.73
2022-08-14T23:13:18.998Z,2.03
2022-08-14T23:15:22.930Z,1.80
2022-08-14T23:17:24.279Z,1.70
2022-08-14T23:19:33.798Z,1.75
2022-08-14T23:21:36.927Z,1.60
2022-08-14T23:23:49.981Z,1.70
2022-08-14T23:26:00.420Z,1.88
2022-08-14T23:28:33.431Z,1.90
2022-08-14T23:30:41.419Z,1.50
2022-08-14T23:32:52.994Z,1.70
2022-08-14T23:34:54.647Z,1.58
2022-08-14T23:36:56.578Z,1.80
2022-08-14T23:38:59.834Z,1.88
2022-08-14T23:41:03.161Z,1.95
2022-08-14T23:43:09.130Z,1.85
2022-08-14T23:45:10.627Z,1.70
2022-08-14T23:47:25.577Z,1.60
2022-08-14T23:50:00.074Z,1.95
2022-08-14T23:52:49.345Z,2.10
2022-08-14T23:54:47.909Z,1.77
2022-08-14T23:56:35.577Z,2.20
2022-08-14T23:58:37.181Z,1.88
